Crescent Mills, California
Current Conditions -  °F | °C
As of 8:58 AM on Friday 28 Nov 2014 (Local Time) from KCIC Reporting Station
Broken Clouds Broken Clouds  
Wind Chill: 39°   Ceiling: 20000
Heat Index: 43°   Visibility: 7mi
Dew Point: 41°   Wind: 6mph
Humidity: 93%   Direction: 340°NNW
Pressure: 30.01"   Gusts: NA
Location:  40.1°N, 120.91°W
Report Text: KCIC 281658Z 34005KT 7SM SCT150 BKN200 06/05 A3001
Loading
Personal Weather Stations






























Interactive Weather Map New forecast layout! Learn more

10-Day Weather Forecast

Advertisements
Track Severe Weather on mobile